Time;durP1;ratioP1;P1;durP2;ratioP2;P2;SDS_P1;SDS_P2;PMS_P1;PMS_P2;Temp;Humidity;BMP_temperature;BMP_pressure;BME280_temperature;BME280_humidity;BME280_pressure;Samples;Min_cycle;Max_cycle;Signal;HPM_P1;HPM_P2
2023/10/14 00:02:40;0.00;0.00;0.62;0.00;0.00;0.62;7.50;4.90;;;27.50;34.70;;;;;;2266653;61;20430;-67
2023/10/14 00:05:24;0.00;0.00;0.62;0.00;0.00;0.62;6.47;4.63;;;27.50;34.80;;;;;;2270416;61;20354;-63
2023/10/14 00:08:12;0.00;0.00;0.62;0.00;0.00;0.62;7.37;5.03;;;27.50;34.70;;;;;;2270018;61;20409;-64
2023/10/14 00:11:00;0.00;0.00;0.62;0.00;0.00;0.62;5.07;4.57;;;27.50;34.80;;;;;;2269885;61;20811;-64
2023/10/14 00:13:49;0.00;0.00;0.62;0.00;0.00;0.62;5.33;3.97;;;27.50;34.80;;;;;;2267003;61;20382;-64
2023/10/14 00:16:36;0.00;0.00;0.62;0.00;0.00;0.62;5.90;4.83;;;27.50;34.80;;;;;;2270035;61;20391;-64
2023/10/14 00:19:22;0.00;0.00;0.62;0.00;0.00;0.62;7.60;4.60;;;27.50;34.80;;;;;;2270060;61;20367;-63
2023/10/14 00:22:08;0.00;0.00;0.62;0.00;0.00;0.62;5.83;4.47;;;27.50;34.80;;;;;;2270446;61;20398;-63
2023/10/14 00:24:54;0.00;0.00;0.62;0.00;0.00;0.62;7.33;4.67;;;27.50;34.80;;;;;;2270583;61;20953;-64
2023/10/14 00:27:39;0.00;0.00;0.62;0.00;0.00;0.62;5.87;4.60;;;27.50;34.80;;;;;;2270652;61;20367;-63
2023/10/14 00:30:27;0.00;0.00;0.62;0.00;0.00;0.62;5.90;4.50;;;27.40;34.70;;;;;;2270364;61;20440;-63
2023/10/14 00:33:12;0.00;0.00;0.62;0.00;0.00;0.62;10.47;4.70;;;27.40;34.70;;;;;;2270596;61;20433;-63
2023/10/14 00:35:59;0.00;0.00;0.62;0.00;0.00;0.62;8.93;4.43;;;27.40;34.70;;;;;;2268485;61;20432;-64
2023/10/14 00:38:45;0.00;0.00;0.62;0.00;0.00;0.62;6.20;4.87;;;27.40;34.70;;;;;;2267830;61;20366;-64
2023/10/14 00:41:31;0.00;0.00;0.62;0.00;0.00;0.62;11.17;5.17;;;27.40;34.70;;;;;;2274755;47;21746;-64
2023/10/14 00:44:17;0.00;0.00;0.62;0.00;0.00;0.62;8.57;5.37;;;27.40;34.80;;;;;;2268365;61;20371;-63
2023/10/14 00:47:14;0.00;0.00;0.62;0.00;0.00;0.62;10.50;5.30;;;27.40;34.80;;;;;;2271628;61;20358;-63
2023/10/14 00:50:02;0.00;0.00;0.62;0.00;0.00;0.62;5.13;4.63;;;27.40;34.80;;;;;;2268384;61;20367;-63
2023/10/14 00:52:55;0.00;0.00;0.62;0.00;0.00;0.62;8.57;5.23;;;27.40;34.80;;;;;;2271900;61;20375;-64
2023/10/14 00:55:46;0.00;0.00;0.62;0.00;0.00;0.62;7.20;5.20;;;27.40;34.80;;;;;;2268560;61;20391;-63
2023/10/14 00:58:39;0.00;0.00;0.62;0.00;0.00;0.62;6.70;5.10;;;27.40;34.80;;;;;;2268454;61;20359;-64
2023/10/14 01:01:28;0.00;0.00;0.62;0.00;0.00;0.62;6.00;4.77;;;27.40;34.80;;;;;;2268636;61;20390;-64
2023/10/14 01:04:19;0.00;0.00;0.62;0.00;0.00;0.62;7.40;4.57;;;27.40;34.80;;;;;;2268684;61;20828;-63
2023/10/14 01:07:06;0.00;0.00;0.62;0.00;0.00;0.62;10.10;5.10;;;27.40;34.80;;;;;;2271665;61;20409;-63
2023/10/14 01:09:52;0.00;0.00;0.62;0.00;0.00;0.62;6.73;4.80;;;27.40;35.50;;;;;;2268085;61;20371;-63
2023/10/14 01:12:40;0.00;0.00;0.62;0.00;0.00;0.62;6.30;4.93;;;27.40;34.90;;;;;;2271948;61;20429;-63
2023/10/14 01:15:43;0.00;0.00;0.62;0.00;0.00;0.62;7.17;4.80;;;27.40;34.80;;;;;;2272024;61;20399;-64
2023/10/14 01:18:31;0.00;0.00;0.62;0.00;0.00;0.62;6.43;5.30;;;27.40;34.90;;;;;;2417670;53;20413;-64
2023/10/14 01:21:16;0.00;0.00;0.62;0.00;0.00;0.62;9.67;4.90;;;27.40;34.80;;;;;;2265026;61;20387;-63
2023/10/14 01:24:07;0.00;0.00;0.62;0.00;0.00;0.62;7.37;5.30;;;27.40;34.80;;;;;;2265819;61;20422;-59
2023/10/14 01:27:00;0.00;0.00;0.62;0.00;0.00;0.62;7.53;5.20;;;27.40;34.90;;;;;;2261798;61;20371;-60
2023/10/14 01:29:44;0.00;0.00;0.62;0.00;0.00;0.62;5.87;5.20;;;27.40;34.80;;;;;;2264957;61;20383;-62
2023/10/14 01:38:14;0.00;0.00;0.62;0.00;0.00;0.62;7.80;5.20;;;27.30;34.90;;;;;;2264464;61;20900;-62
2023/10/14 01:41:04;0.00;0.00;0.62;0.00;0.00;0.62;5.77;4.80;;;27.30;34.80;;;;;;2264999;61;20383;-62
2023/10/14 01:43:48;0.00;0.00;0.62;0.00;0.00;0.62;4.73;4.30;;;27.30;34.90;;;;;;2261791;61;20490;-59
2023/10/14 01:46:34;0.00;0.00;0.62;0.00;0.00;0.62;4.83;3.60;;;27.30;34.90;;;;;;2264390;61;20359;-62
2023/10/14 01:49:19;0.00;0.00;0.62;0.00;0.00;0.62;4.03;3.30;;;27.30;34.90;;;;;;2264617;61;20372;-63
2023/10/14 01:52:14;0.00;0.00;0.62;0.00;0.00;0.62;4.23;3.83;;;27.30;34.90;;;;;;2264519;61;20430;-61
2023/10/14 01:55:00;0.00;0.00;0.62;0.00;0.00;0.62;3.53;3.07;;;27.30;34.90;;;;;;2264823;61;20383;-62
2023/10/14 01:57:46;0.00;0.00;0.62;0.00;0.00;0.62;4.27;2.50;;;27.30;34.90;;;;;;2264880;61;20897;-59
2023/10/14 02:00:46;0.00;0.00;0.62;0.00;0.00;0.62;4.20;3.00;;;27.30;34.90;;;;;;2264443;61;20858;-60
2023/10/14 02:03:35;0.00;0.00;0.62;0.00;0.00;0.62;5.27;2.70;;;27.30;34.90;;;;;;2264339;61;20364;-62
2023/10/14 02:06:32;0.00;0.00;0.62;0.00;0.00;0.62;3.53;2.53;;;27.30;34.90;;;;;;2264517;61;20357;-62
2023/10/14 02:09:19;0.00;0.00;0.62;0.00;0.00;0.62;3.40;2.60;;;27.30;34.90;;;;;;2263892;61;20410;-62
2023/10/14 02:12:05;0.00;0.00;0.62;0.00;0.00;0.62;5.63;2.80;;;27.30;34.90;;;;;;2264753;61;20399;-60
2023/10/14 02:14:57;0.00;0.00;0.62;0.00;0.00;0.62;3.20;2.60;;;27.30;34.90;;;;;;2264725;61;20396;-63
2023/10/14 02:17:42;0.00;0.00;0.62;0.00;0.00;0.62;5.27;2.57;;;27.30;35.00;;;;;;2264871;61;20408;-58
2023/10/14 02:20:37;0.00;0.00;0.62;0.00;0.00;0.62;4.03;2.10;;;27.30;34.90;;;;;;2264833;61;20360;-60
2023/10/14 02:23:25;0.00;0.00;0.62;0.00;0.00;0.62;3.33;1.90;;;27.20;34.80;;;;;;2264808;61;20380;-59
2023/10/14 02:26:15;0.00;0.00;0.62;0.00;0.00;0.62;2.60;1.60;;;27.30;34.70;;;;;;2264841;61;20410;-62
2023/10/14 02:29:00;0.00;0.00;0.62;0.00;0.00;0.62;3.10;1.60;;;27.30;34.70;;;;;;2264580;61;20776;-63
2023/10/14 02:31:46;0.00;0.00;0.62;0.00;0.00;0.62;1.90;1.43;;;27.30;34.60;;;;;;2264567;61;20407;-60
2023/10/14 02:34:31;0.00;0.00;0.62;0.00;0.00;0.62;2.80;1.90;;;27.30;34.60;;;;;;2264708;61;20364;-61
2023/10/14 02:37:15;0.00;0.00;0.62;0.00;0.00;0.62;3.30;1.67;;;27.30;34.50;;;;;;2264211;61;20519;-62
2023/10/14 02:40:00;0.00;0.00;0.62;0.00;0.00;0.62;2.33;1.40;;;27.30;34.50;;;;;;2264216;61;20499;-60
2023/10/14 02:42:46;0.00;0.00;0.62;0.00;0.00;0.62;2.87;1.67;;;27.20;34.40;;;;;;2264136;61;20415;-60
2023/10/14 02:45:37;0.00;0.00;0.62;0.00;0.00;0.62;2.60;1.30;;;27.20;34.40;;;;;;2264147;61;20460;-62
2023/10/14 02:48:23;0.00;0.00;0.62;0.00;0.00;0.62;2.00;1.50;;;27.20;34.40;;;;;;2264253;61;20413;-61
2023/10/14 02:51:08;0.00;0.00;0.62;0.00;0.00;0.62;3.67;1.43;;;27.20;34.40;;;;;;2264418;61;20426;-62
2023/10/14 02:53:55;0.00;0.00;0.62;0.00;0.00;0.62;2.73;1.60;;;27.20;34.40;;;;;;2264075;61;20379;-60
2023/10/14 03:02:48;0.00;0.00;0.62;0.00;0.00;0.62;1.60;1.00;;;27.20;34.40;;;;;;2264594;61;20917;-57
2023/10/14 03:05:36;0.00;0.00;0.62;0.00;0.00;0.62;2.83;1.33;;;27.20;34.40;;;;;;2264107;61;20398;-60
2023/10/14 03:08:21;0.00;0.00;0.62;0.00;0.00;0.62;1.93;1.00;;;27.20;34.40;;;;;;2263966;61;20391;-62
2023/10/14 03:11:16;0.00;0.00;0.62;0.00;0.00;0.62;1.70;1.13;;;27.20;34.40;;;;;;2264495;61;20782;-62
2023/10/14 03:14:01;0.00;0.00;0.62;0.00;0.00;0.62;2.30;1.10;;;27.20;34.40;;;;;;2264710;61;20360;-62
2023/10/14 03:16:46;0.00;0.00;0.62;0.00;0.00;0.62;1.70;1.13;;;27.20;34.40;;;;;;2264199;61;20869;-62
2023/10/14 03:19:30;0.00;0.00;0.62;0.00;0.00;0.62;2.40;1.20;;;27.20;34.40;;;;;;2264235;61;20372;-62
2023/10/14 03:22:16;0.00;0.00;0.62;0.00;0.00;0.62;3.87;1.20;;;27.20;34.30;;;;;;2264671;61;20522;-60
2023/10/14 03:25:09;0.00;0.00;0.62;0.00;0.00;0.62;1.87;1.17;;;27.20;34.40;;;;;;2264162;61;20402;-61
2023/10/14 03:28:13;0.00;0.00;0.62;0.00;0.00;0.62;2.23;1.30;;;27.20;34.30;;;;;;2263927;61;20360;-62
2023/10/14 03:30:58;0.00;0.00;0.62;0.00;0.00;0.62;1.73;1.00;;;27.20;34.30;;;;;;2264629;61;20364;-64
2023/10/14 03:33:43;0.00;0.00;0.62;0.00;0.00;0.62;2.67;1.20;;;27.20;34.30;;;;;;2264083;61;20359;-62
2023/10/14 03:36:31;0.00;0.00;0.62;0.00;0.00;0.62;2.57;1.30;;;27.20;34.30;;;;;;2263936;61;20805;-59
2023/10/14 03:39:28;0.00;0.00;0.62;0.00;0.00;0.62;3.07;1.50;;;27.20;34.30;;;;;;2264026;61;20360;-62
2023/10/14 03:42:14;0.00;0.00;0.62;0.00;0.00;0.62;1.70;1.10;;;27.20;34.30;;;;;;2264171;61;20399;-61
2023/10/14 03:44:59;0.00;0.00;0.62;0.00;0.00;0.62;2.50;1.33;;;27.20;34.30;;;;;;2264570;61;20468;-62
2023/10/14 03:47:45;0.00;0.00;0.62;0.00;0.00;0.62;2.63;1.10;;;27.10;34.20;;;;;;2264534;61;20363;-63
2023/10/14 03:50:30;0.00;0.00;0.62;0.00;0.00;0.62;2.10;1.23;;;27.10;34.20;;;;;;2264472;61;20414;-57
2023/10/14 03:53:17;0.00;0.00;0.62;0.00;0.00;0.62;2.30;1.17;;;27.10;34.20;;;;;;2264073;61;20483;-62
2023/10/14 03:56:03;0.00;0.00;0.62;0.00;0.00;0.62;1.70;1.00;;;27.10;34.10;;;;;;2264566;61;20384;-60
2023/10/14 03:58:49;0.00;0.00;0.62;0.00;0.00;0.62;2.47;1.20;;;27.10;34.10;;;;;;2264061;61;20422;-62
2023/10/14 04:04:24;0.00;0.00;0.62;0.00;0.00;0.62;2.50;0.90;;;27.10;34.10;;;;;;2264509;61;20360;-60
2023/10/14 04:09:58;0.00;0.00;0.62;0.00;0.00;0.62;1.90;1.00;;;27.10;34.10;;;;;;2264534;61;20364;-62
2023/10/14 04:12:53;0.00;0.00;0.62;0.00;0.00;0.62;1.50;0.80;;;27.10;34.00;;;;;;2265075;61;20430;-62
2023/10/14 04:15:52;0.00;0.00;0.62;0.00;0.00;0.62;1.53;0.83;;;27.10;34.00;;;;;;2265224;61;20376;-60
2023/10/14 04:18:37;0.00;0.00;0.62;0.00;0.00;0.62;2.33;0.73;;;27.10;34.00;;;;;;2264564;61;20444;-60
2023/10/14 04:21:26;0.00;0.00;0.62;0.00;0.00;0.62;2.10;0.97;;;27.10;34.00;;;;;;2265104;61;20434;-63
2023/10/14 04:27:17;0.00;0.00;0.62;0.00;0.00;0.62;2.07;1.23;;;27.10;33.90;;;;;;2265434;61;20763;-58
2023/10/14 04:30:21;0.00;0.00;0.62;0.00;0.00;0.62;1.90;0.90;;;27.10;33.90;;;;;;2264841;61;20395;-60
2023/10/14 04:33:16;0.00;0.00;0.62;0.00;0.00;0.62;1.97;0.90;;;27.00;33.90;;;;;;2265084;61;20433;-62
2023/10/14 04:39:05;0.00;0.00;0.62;0.00;0.00;0.62;1.70;0.90;;;27.00;33.80;;;;;;2264815;61;20356;-60
2023/10/14 04:41:55;0.00;0.00;0.62;0.00;0.00;0.62;2.93;1.30;;;27.00;33.80;;;;;;2264924;61;20468;-62
2023/10/14 04:44:45;0.00;0.00;0.62;0.00;0.00;0.62;3.20;1.00;;;27.00;33.80;;;;;;2264600;61;20413;-62
2023/10/14 04:47:37;0.00;0.00;0.62;0.00;0.00;0.62;3.67;1.37;;;27.00;33.70;;;;;;2265228;61;20380;-62
2023/10/14 04:50:23;0.00;0.00;0.62;0.00;0.00;0.62;2.03;1.00;;;27.00;33.70;;;;;;2264910;61;20912;-62
2023/10/14 04:53:13;0.00;0.00;0.62;0.00;0.00;0.62;1.67;0.90;;;27.00;33.70;;;;;;2264935;61;20423;-62
2023/10/14 04:56:01;0.00;0.00;0.62;0.00;0.00;0.62;1.70;0.87;;;27.00;33.70;;;;;;2265141;61;20376;-60
2023/10/14 04:58:46;0.00;0.00;0.62;0.00;0.00;0.62;1.73;0.90;;;27.00;33.70;;;;;;2264322;61;20411;-62
2023/10/14 05:01:30;0.00;0.00;0.62;0.00;0.00;0.62;2.00;1.17;;;27.00;33.70;;;;;;2265012;61;20513;-62
2023/10/14 05:04:20;0.00;0.00;0.62;0.00;0.00;0.62;2.37;1.37;;;27.00;33.70;;;;;;2265339;61;20368;-58
2023/10/14 05:07:05;0.00;0.00;0.62;0.00;0.00;0.62;3.40;1.50;;;27.00;33.60;;;;;;2264963;61;20406;-62
2023/10/14 05:09:56;0.00;0.00;0.62;0.00;0.00;0.62;2.20;1.43;;;27.00;33.60;;;;;;2264798;61;20429;-59
2023/10/14 05:12:40;0.00;0.00;0.62;0.00;0.00;0.62;3.10;1.47;;;27.00;33.60;;;;;;2264776;61;20379;-60
2023/10/14 05:15:28;0.00;0.00;0.62;0.00;0.00;0.62;2.30;1.50;;;27.00;33.60;;;;;;2264989;61;20383;-60
2023/10/14 05:18:15;0.00;0.00;0.62;0.00;0.00;0.62;2.97;1.30;;;27.00;33.60;;;;;;2264752;61;20498;-62
2023/10/14 05:21:34;0.00;0.00;0.62;0.00;0.00;0.62;3.70;2.10;;;26.90;33.40;;;;;;2264560;61;20894;-62
2023/10/14 05:24:15;0.00;0.00;0.62;0.00;0.00;0.62;2.57;1.67;;;26.90;33.40;;;;;;2264985;61;20372;-58
2023/10/14 05:26:59;0.00;0.00;0.62;0.00;0.00;0.62;2.33;1.57;;;26.90;33.40;;;;;;2265005;61;20926;-58
2023/10/14 05:29:50;0.00;0.00;0.62;0.00;0.00;0.62;4.20;2.43;;;26.90;34.10;;;;;;2264752;61;20379;-61
2023/10/14 05:32:36;0.00;0.00;0.62;0.00;0.00;0.62;4.10;2.07;;;26.90;34.00;;;;;;2264774;61;20379;-62
2023/10/14 05:35:22;0.00;0.00;0.62;0.00;0.00;0.62;3.60;2.47;;;26.90;33.30;;;;;;2264867;61;20550;-60
2023/10/14 05:38:11;0.00;0.00;0.62;0.00;0.00;0.62;4.50;2.63;;;26.90;33.30;;;;;;2264689;61;20958;-60
2023/10/14 05:40:58;0.00;0.00;0.62;0.00;0.00;0.62;4.07;2.90;;;26.90;33.20;;;;;;2265136;61;20437;-59
2023/10/14 05:43:43;0.00;0.00;0.62;0.00;0.00;0.62;3.57;2.50;;;26.90;33.20;;;;;;2264330;61;20379;-62
2023/10/14 05:46:28;0.00;0.00;0.62;0.00;0.00;0.62;3.20;2.50;;;26.90;33.10;;;;;;2264902;61;20418;-61
2023/10/14 05:49:12;0.00;0.00;0.62;0.00;0.00;0.62;5.53;2.83;;;26.90;33.10;;;;;;2264469;61;20418;-62
2023/10/14 05:52:30;0.00;0.00;0.62;0.00;0.00;0.62;5.53;3.10;;;26.90;33.10;;;;;;2314950;39;20433;-63
2023/10/14 05:55:19;0.00;0.00;0.62;0.00;0.00;0.62;5.63;2.90;;;26.80;33.00;;;;;;2274285;61;20429;-60
2023/10/14 05:58:06;0.00;0.00;0.62;0.00;0.00;0.62;5.20;3.03;;;26.80;33.00;;;;;;2272574;61;20358;-59
2023/10/14 06:00:51;0.00;0.00;0.62;0.00;0.00;0.62;5.30;2.90;;;26.80;33.00;;;;;;2272963;61;20366;-60
2023/10/14 06:03:36;0.00;0.00;0.62;0.00;0.00;0.62;6.13;3.23;;;26.80;32.90;;;;;;2269025;61;20454;-61
2023/10/14 06:06:21;0.00;0.00;0.62;0.00;0.00;0.62;7.97;3.90;;;26.80;32.90;;;;;;2268697;61;20359;-61
2023/10/14 06:09:08;0.00;0.00;0.62;0.00;0.00;0.62;5.40;3.37;;;26.80;32.80;;;;;;2268442;61;20408;-61
2023/10/14 06:14:48;0.00;0.00;0.62;0.00;0.00;0.62;4.40;3.40;;;26.80;32.80;;;;;;2278576;60;20862;-60
2023/10/14 06:17:38;0.00;0.00;0.62;0.00;0.00;0.62;6.47;3.60;;;26.80;32.70;;;;;;2276683;60;20385;-60
2023/10/14 06:20:23;0.00;0.00;0.62;0.00;0.00;0.62;5.97;3.40;;;26.80;32.70;;;;;;2276608;60;20385;-60
2023/10/14 06:26:07;0.00;0.00;0.62;0.00;0.00;0.62;4.53;3.30;;;26.80;32.60;;;;;;2265896;61;20376;-59
2023/10/14 06:28:56;0.00;0.00;0.62;0.00;0.00;0.62;6.27;3.70;;;26.80;32.60;;;;;;2268475;61;20748;-60
2023/10/14 06:31:42;0.00;0.00;0.62;0.00;0.00;0.62;4.80;3.60;;;26.80;32.50;;;;;;2268821;61;20977;-61
2023/10/14 06:34:27;0.00;0.00;0.62;0.00;0.00;0.62;5.13;3.70;;;26.70;32.50;;;;;;2268466;61;20501;-60
2023/10/14 06:37:12;0.00;0.00;0.62;0.00;0.00;0.62;5.43;3.20;;;26.70;32.50;;;;;;2268766;61;20954;-58
2023/10/14 06:39:56;0.00;0.00;0.62;0.00;0.00;0.62;5.27;3.63;;;26.70;32.40;;;;;;2268298;61;20469;-58
2023/10/14 06:42:44;0.00;0.00;0.62;0.00;0.00;0.62;6.13;3.87;;;26.70;33.10;;;;;;2268494;61;20433;-61
2023/10/14 06:45:33;0.00;0.00;0.62;0.00;0.00;0.62;4.37;3.57;;;26.70;32.30;;;;;;2268334;61;20351;-62
2023/10/14 06:48:19;0.00;0.00;0.62;0.00;0.00;0.62;5.27;3.80;;;26.70;32.30;;;;;;2268498;61;20367;-60
2023/10/14 06:51:06;0.00;0.00;0.62;0.00;0.00;0.62;5.90;4.07;;;26.70;32.30;;;;;;2268670;61;20867;-63
2023/10/14 06:53:51;0.00;0.00;0.62;0.00;0.00;0.62;5.90;3.67;;;26.70;32.20;;;;;;2268797;61;20815;-59
2023/10/14 06:56:36;0.00;0.00;0.62;0.00;0.00;0.62;5.87;3.20;;;26.70;32.20;;;;;;2268395;61;20394;-61
2023/10/14 06:59:20;0.00;0.00;0.62;0.00;0.00;0.62;5.20;3.20;;;26.70;32.20;;;;;;2268363;61;20437;-61
2023/10/14 07:02:06;0.00;0.00;0.62;0.00;0.00;0.62;4.40;3.00;;;26.70;32.10;;;;;;2268510;61;20386;-58
2023/10/14 07:04:52;0.00;0.00;0.62;0.00;0.00;0.62;3.93;2.73;;;26.60;32.00;;;;;;2268297;61;20916;-60
2023/10/14 07:07:37;0.00;0.00;0.62;0.00;0.00;0.62;7.77;3.07;;;26.60;32.00;;;;;;2268530;61;20359;-62
2023/10/14 07:10:27;0.00;0.00;0.62;0.00;0.00;0.62;7.10;3.90;;;26.60;32.00;;;;;;2268756;61;20930;-63
2023/10/14 07:13:12;0.00;0.00;0.62;0.00;0.00;0.62;5.07;2.70;;;26.60;32.00;;;;;;2339757;39;20481;-62
2023/10/14 07:16:04;0.00;0.00;0.62;0.00;0.00;0.62;4.77;3.00;;;26.70;32.00;;;;;;2276735;60;20392;-63
2023/10/14 07:18:48;0.00;0.00;0.62;0.00;0.00;0.62;4.10;2.40;;;26.60;31.90;;;;;;2276356;60;20357;-60
2023/10/14 07:21:34;0.00;0.00;0.62;0.00;0.00;0.62;4.33;2.57;;;26.60;31.90;;;;;;2276886;60;20416;-61
2023/10/14 07:24:20;0.00;0.00;0.62;0.00;0.00;0.62;5.67;2.37;;;26.60;31.90;;;;;;2276903;60;20821;-60
2023/10/14 07:27:06;0.00;0.00;0.62;0.00;0.00;0.62;6.17;2.70;;;26.60;31.90;;;;;;2276643;60;20357;-62
2023/10/14 07:29:51;0.00;0.00;0.62;0.00;0.00;0.62;4.83;2.27;;;26.60;31.80;;;;;;2276553;60;20399;-60
2023/10/14 07:32:36;0.00;0.00;0.62;0.00;0.00;0.62;3.70;2.33;;;26.60;31.80;;;;;;2276586;60;20917;-62
2023/10/14 07:35:22;0.00;0.00;0.62;0.00;0.00;0.62;4.50;2.20;;;26.60;31.80;;;;;;2276785;60;20882;-61
2023/10/14 07:38:09;0.00;0.00;0.62;0.00;0.00;0.62;3.93;2.30;;;26.60;31.80;;;;;;2276451;60;20365;-62
2023/10/14 07:40:58;0.00;0.00;0.62;0.00;0.00;0.62;3.77;2.07;;;26.60;31.70;;;;;;2276619;60;20849;-62
2023/10/14 07:43:43;0.00;0.00;0.62;0.00;0.00;0.62;4.07;1.93;;;26.60;31.70;;;;;;2276688;60;20376;-61
2023/10/14 07:46:28;0.00;0.00;0.62;0.00;0.00;0.62;4.73;2.13;;;26.60;31.70;;;;;;2271925;61;20436;-59
2023/10/14 07:49:14;0.00;0.00;0.62;0.00;0.00;0.62;4.37;2.30;;;26.60;31.70;;;;;;2272349;61;20412;-62
2023/10/14 07:52:00;0.00;0.00;0.62;0.00;0.00;0.62;4.60;2.27;;;26.60;31.70;;;;;;2272587;61;20409;-57
2023/10/14 07:54:50;0.00;0.00;0.62;0.00;0.00;0.62;3.63;2.40;;;26.60;31.70;;;;;;2272791;61;20408;-61
2023/10/14 07:57:34;0.00;0.00;0.62;0.00;0.00;0.62;4.00;1.87;;;26.60;31.70;;;;;;2272524;61;20836;-57
2023/10/14 08:00:19;0.00;0.00;0.62;0.00;0.00;0.62;4.23;2.67;;;26.50;31.60;;;;;;2272929;61;20442;-57
2023/10/14 08:03:06;0.00;0.00;0.62;0.00;0.00;0.62;3.70;2.33;;;26.50;31.50;;;;;;2272367;61;20382;-56
2023/10/14 08:05:54;0.00;0.00;0.62;0.00;0.00;0.62;4.33;2.27;;;26.50;31.50;;;;;;2272934;61;20423;-59
2023/10/14 08:08:47;0.00;0.00;0.62;0.00;0.00;0.62;3.07;1.70;;;26.50;31.40;;;;;;2272390;61;20411;-60
2023/10/14 08:11:37;0.00;0.00;0.62;0.00;0.00;0.62;3.20;1.73;;;26.50;31.40;;;;;;2272488;61;20408;-60
2023/10/14 08:14:22;0.00;0.00;0.62;0.00;0.00;0.62;3.40;1.70;;;26.50;31.50;;;;;;2272582;61;20355;-60
2023/10/14 08:17:11;0.00;0.00;0.62;0.00;0.00;0.62;3.10;1.90;;;26.50;31.40;;;;;;2272609;61;20413;-62
2023/10/14 08:19:56;0.00;0.00;0.62;0.00;0.00;0.62;4.93;2.13;;;26.50;31.40;;;;;;2272102;61;20502;-57
2023/10/14 08:22:44;0.00;0.00;0.62;0.00;0.00;0.62;6.33;1.90;;;26.50;31.40;;;;;;2272402;61;20450;-60
2023/10/14 08:25:30;0.00;0.00;0.62;0.00;0.00;0.62;5.63;1.70;;;26.50;31.40;;;;;;2272210;61;20366;-59
2023/10/14 08:28:17;0.00;0.00;0.62;0.00;0.00;0.62;4.30;1.70;;;26.50;31.40;;;;;;2272341;61;20362;-58
2023/10/14 08:31:04;0.00;0.00;0.62;0.00;0.00;0.62;5.70;2.20;;;26.50;31.40;;;;;;2272531;61;20504;-62
2023/10/14 08:33:50;0.00;0.00;0.62;0.00;0.00;0.62;2.80;1.70;;;26.50;31.40;;;;;;2272306;61;20404;-58
2023/10/14 08:36:34;0.00;0.00;0.62;0.00;0.00;0.62;4.00;1.83;;;26.50;31.50;;;;;;2272356;61;20846;-59
2023/10/14 08:39:23;0.00;0.00;0.62;0.00;0.00;0.62;4.20;1.50;;;26.50;31.50;;;;;;2272085;61;20782;-56
2023/10/14 08:42:09;0.00;0.00;0.62;0.00;0.00;0.62;3.60;1.80;;;26.50;31.60;;;;;;2272703;61;20424;-58
2023/10/14 08:44:58;0.00;0.00;0.62;0.00;0.00;0.62;2.93;1.33;;;26.50;31.60;;;;;;2272612;61;20358;-61
2023/10/14 08:47:46;0.00;0.00;0.62;0.00;0.00;0.62;3.57;1.73;;;26.50;31.60;;;;;;2268979;61;20835;-60
2023/10/14 08:50:34;0.00;0.00;0.62;0.00;0.00;0.62;3.37;1.80;;;26.50;31.60;;;;;;2272426;61;20389;-62
2023/10/14 08:53:22;0.00;0.00;0.62;0.00;0.00;0.62;3.07;1.50;;;26.50;31.70;;;;;;2272625;61;20895;-60
2023/10/14 08:56:08;0.00;0.00;0.62;0.00;0.00;0.62;4.47;1.40;;;26.50;31.70;;;;;;2272632;60;20382;-58
2023/10/14 08:58:52;0.00;0.00;0.62;0.00;0.00;0.62;2.63;1.50;;;26.50;31.70;;;;;;2272786;61;20905;-60
2023/10/14 09:01:40;0.00;0.00;0.62;0.00;0.00;0.62;3.40;1.40;;;26.50;31.70;;;;;;2273294;61;20835;-57
2023/10/14 09:04:27;0.00;0.00;0.62;0.00;0.00;0.62;2.77;2.10;;;26.50;31.70;;;;;;2273089;61;20370;-59
2023/10/14 09:07:16;0.00;0.00;0.62;0.00;0.00;0.62;2.90;1.37;;;26.60;31.70;;;;;;2273296;61;20381;-59
2023/10/14 09:10:01;0.00;0.00;0.62;0.00;0.00;0.62;4.40;1.60;;;26.60;31.80;;;;;;2272914;61;20362;-61
2023/10/14 09:12:57;0.00;0.00;0.62;0.00;0.00;0.62;3.37;1.40;;;26.60;31.80;;;;;;2273008;61;20490;-60
2023/10/14 09:15:43;0.00;0.00;0.62;0.00;0.00;0.62;2.83;1.40;;;26.60;31.80;;;;;;2273381;61;20428;-57
2023/10/14 09:18:29;0.00;0.00;0.62;0.00;0.00;0.62;3.20;1.70;;;26.60;31.70;;;;;;2272512;61;20405;-58
2023/10/14 09:21:13;0.00;0.00;0.62;0.00;0.00;0.62;3.33;1.40;;;26.60;31.70;;;;;;2273369;61;20649;-62
2023/10/14 09:24:07;0.00;0.00;0.62;0.00;0.00;0.62;3.67;1.80;;;26.60;31.70;;;;;;2269953;61;20378;-57
2023/10/14 09:26:52;0.00;0.00;0.62;0.00;0.00;0.62;4.23;2.60;;;26.60;31.80;;;;;;2273017;61;20405;-60
2023/10/14 09:29:37;0.00;0.00;0.62;0.00;0.00;0.62;4.70;2.43;;;26.60;31.80;;;;;;2272922;61;20377;-61
2023/10/14 09:32:21;0.00;0.00;0.62;0.00;0.00;0.62;3.97;1.90;;;26.60;31.80;;;;;;2269637;61;20439;-59
2023/10/14 09:35:08;0.00;0.00;0.62;0.00;0.00;0.62;5.33;2.10;;;26.60;31.80;;;;;;2273143;61;20367;-60
2023/10/14 09:37:52;0.00;0.00;0.62;0.00;0.00;0.62;3.93;2.03;;;26.60;31.80;;;;;;2269474;61;20408;-58
2023/10/14 09:40:38;0.00;0.00;0.62;0.00;0.00;0.62;4.00;2.10;;;26.60;31.80;;;;;;2273035;61;20366;-58
2023/10/14 09:43:24;0.00;0.00;0.62;0.00;0.00;0.62;4.60;2.07;;;26.60;31.70;;;;;;2273165;61;20463;-62
2023/10/14 09:46:11;0.00;0.00;0.62;0.00;0.00;0.62;2.80;1.70;;;26.60;31.70;;;;;;2272907;61;20403;-59
2023/10/14 09:48:57;0.00;0.00;0.62;0.00;0.00;0.62;3.83;2.10;;;26.70;31.70;;;;;;2272676;61;20904;-57
2023/10/14 09:51:48;0.00;0.00;0.62;0.00;0.00;0.62;3.43;2.23;;;26.70;31.70;;;;;;2273006;61;20918;-61
2023/10/14 09:54:35;0.00;0.00;0.62;0.00;0.00;0.62;3.57;1.90;;;26.70;32.30;;;;;;2272654;61;20363;-61
2023/10/14 09:57:21;0.00;0.00;0.62;0.00;0.00;0.62;3.07;1.77;;;26.70;31.60;;;;;;2269908;61;20467;-61
2023/10/14 10:00:07;0.00;0.00;0.62;0.00;0.00;0.62;3.97;1.97;;;26.70;31.50;;;;;;2272756;61;20370;-58
2023/10/14 10:02:53;0.00;0.00;0.62;0.00;0.00;0.62;3.57;1.77;;;26.70;31.50;;;;;;2272956;61;20731;-60
2023/10/14 10:05:43;0.00;0.00;0.62;0.00;0.00;0.62;3.90;2.00;;;26.70;31.50;;;;;;2273203;61;20890;-57
2023/10/14 10:08:59;0.00;0.00;0.62;0.00;0.00;0.62;2.70;1.70;;;26.70;31.40;;;;;;2272486;61;20920;-60
2023/10/14 10:11:46;0.00;0.00;0.62;0.00;0.00;0.62;5.43;1.70;;;26.70;31.40;;;;;;2273011;61;20439;-60
2023/10/14 10:14:38;0.00;0.00;0.62;0.00;0.00;0.62;3.53;1.70;;;26.70;31.30;;;;;;2272882;61;20359;-61
2023/10/14 10:17:24;0.00;0.00;0.62;0.00;0.00;0.62;4.37;1.70;;;26.70;31.20;;;;;;2272888;61;20432;-60
2023/10/14 10:20:12;0.00;0.00;0.62;0.00;0.00;0.62;5.00;2.07;;;26.70;31.20;;;;;;2272565;61;20366;-59
2023/10/14 10:23:01;0.00;0.00;0.62;0.00;0.00;0.62;2.77;1.90;;;26.80;31.20;;;;;;2272774;61;20394;-62
2023/10/14 10:25:49;0.00;0.00;0.62;0.00;0.00;0.62;3.90;1.90;;;26.70;31.20;;;;;;2273054;61;20409;-60
2023/10/14 10:28:44;0.00;0.00;0.62;0.00;0.00;0.62;5.30;1.70;;;26.80;31.20;;;;;;2269184;61;20402;-62
2023/10/14 10:31:29;0.00;0.00;0.62;0.00;0.00;0.62;3.90;1.40;;;26.80;31.30;;;;;;2272600;61;20378;-59
2023/10/14 10:34:14;0.00;0.00;0.62;0.00;0.00;0.62;4.63;1.87;;;26.80;31.20;;;;;;2272950;61;20456;-62
2023/10/14 10:36:59;0.00;0.00;0.62;0.00;0.00;0.62;4.47;1.57;;;26.80;31.20;;;;;;2272972;61;20386;-60
2023/10/14 10:39:50;0.00;0.00;0.62;0.00;0.00;0.62;4.33;2.00;;;26.80;31.20;;;;;;2272429;61;20529;-59
2023/10/14 10:42:41;0.00;0.00;0.62;0.00;0.00;0.62;3.80;1.70;;;26.80;31.30;;;;;;2272817;61;20956;-58
2023/10/14 10:45:31;0.00;0.00;0.62;0.00;0.00;0.62;3.93;1.70;;;26.80;31.30;;;;;;2272872;61;20902;-63
2023/10/14 10:48:16;0.00;0.00;0.62;0.00;0.00;0.62;3.60;2.03;;;26.80;31.20;;;;;;2272662;61;20446;-61
2023/10/14 10:51:01;0.00;0.00;0.62;0.00;0.00;0.62;3.57;1.90;;;26.80;31.20;;;;;;2272816;61;20420;-62
2023/10/14 10:53:48;0.00;0.00;0.62;0.00;0.00;0.62;4.57;2.20;;;26.90;31.30;;;;;;2272670;61;20362;-62
2023/10/14 10:56:34;0.00;0.00;0.62;0.00;0.00;0.62;3.87;1.97;;;26.90;31.30;;;;;;2272778;61;20504;-61
2023/10/14 10:59:20;0.00;0.00;0.62;0.00;0.00;0.62;3.77;1.87;;;26.90;31.30;;;;;;2272490;61;21254;-60
2023/10/14 11:02:08;0.00;0.00;0.62;0.00;0.00;0.62;4.43;2.27;;;26.90;31.30;;;;;;2272691;61;20378;-62
2023/10/14 11:04:52;0.00;0.00;0.62;0.00;0.00;0.62;3.47;2.10;;;27.00;31.20;;;;;;2273002;61;20741;-60
2023/10/14 11:07:37;0.00;0.00;0.62;0.00;0.00;0.62;2.57;1.87;;;27.00;31.10;;;;;;2272615;61;20883;-62
2023/10/14 11:10:23;0.00;0.00;0.62;0.00;0.00;0.62;3.97;2.07;;;27.00;31.00;;;;;;2272856;61;20767;-60
2023/10/14 11:13:08;0.00;0.00;0.62;0.00;0.00;0.62;5.57;2.30;;;27.00;30.90;;;;;;2272840;61;20382;-58
2023/10/14 11:15:54;0.00;0.00;0.62;0.00;0.00;0.62;5.90;2.40;;;27.00;30.90;;;;;;2272713;61;20382;-60
2023/10/14 11:18:47;0.00;0.00;0.62;0.00;0.00;0.62;6.03;2.40;;;27.00;30.80;;;;;;2272254;60;20367;-59
2023/10/14 11:21:31;0.00;0.00;0.62;0.00;0.00;0.62;4.80;2.90;;;27.00;30.70;;;;;;2272970;61;20432;-59
2023/10/14 11:24:16;0.00;0.00;0.62;0.00;0.00;0.62;4.50;2.60;;;27.00;30.70;;;;;;2272488;61;20410;-60
2023/10/14 11:27:02;0.00;0.00;0.62;0.00;0.00;0.62;8.50;3.53;;;27.10;30.80;;;;;;2269641;61;20358;-60
2023/10/14 11:29:47;0.00;0.00;0.62;0.00;0.00;0.62;6.67;3.30;;;27.10;30.80;;;;;;2272438;61;20423;-62
2023/10/14 11:32:33;0.00;0.00;0.62;0.00;0.00;0.62;6.27;3.57;;;27.10;30.70;;;;;;2272752;61;20508;-59